createdAt,value
2022-07-29T00:00:28.075Z,88.40
2022-07-29T00:01:28.062Z,88.03
2022-07-29T00:02:28.126Z,88.23
2022-07-29T00:03:28.036Z,88.20
2022-07-29T00:04:28.090Z,88.54
2022-07-29T00:05:28.016Z,88.34
2022-07-29T00:06:28.007Z,88.03
2022-07-29T00:07:27.994Z,87.83
2022-07-29T00:08:27.985Z,87.99
2022-07-29T00:09:27.972Z,88.13
2022-07-29T00:10:27.962Z,88.44
2022-07-29T00:11:27.949Z,88.44
2022-07-29T00:12:27.942Z,88.49
2022-07-29T00:13:32.383Z,88.34
2022-07-29T00:14:27.924Z,88.44
2022-07-29T00:15:27.911Z,88.23
2022-07-29T00:16:27.951Z,88.34
2022-07-29T00:17:27.889Z,88.13
2022-07-29T00:18:27.879Z,88.34
2022-07-29T00:19:27.867Z,88.44
2022-07-29T00:20:27.856Z,88.44
2022-07-29T00:21:27.851Z,88.44
2022-07-29T00:22:27.834Z,88.13
2022-07-29T00:23:27.821Z,88.44
2022-07-29T00:24:27.814Z,88.34
2022-07-29T00:25:27.801Z,88.13
2022-07-29T00:26:27.794Z,88.07
2022-07-29T00:27:27.781Z,88.44
2022-07-29T00:28:27.770Z,88.38
2022-07-29T00:29:35.490Z,88.44
2022-07-29T00:30:28.776Z,88.03
2022-07-29T00:31:27.789Z,87.93
2022-07-29T00:32:27.728Z,88.13
2022-07-29T00:33:27.716Z,88.18
2022-07-29T00:34:27.710Z,88.68
2022-07-29T00:35:27.696Z,88.78
2022-07-29T00:36:27.688Z,88.64
2022-07-29T00:37:27.675Z,88.64
2022-07-29T00:38:27.667Z,88.95
2022-07-29T00:39:27.651Z,88.64
2022-07-29T00:40:27.641Z,88.54
2022-07-29T00:41:27.631Z,88.68
2022-07-29T00:42:27.618Z,88.68
2022-07-29T00:43:27.606Z,88.58
2022-07-29T00:44:27.597Z,88.38
2022-07-29T00:45:27.586Z,88.68
2022-07-29T00:46:27.683Z,88.58
2022-07-29T00:47:27.562Z,88.58
2022-07-29T00:48:27.553Z,89.19
2022-07-29T00:49:27.560Z,89.09
2022-07-29T00:50:27.530Z,88.89
2022-07-29T00:51:27.519Z,88.89
2022-07-29T00:52:27.509Z,88.99
2022-07-29T00:53:27.496Z,88.89
2022-07-29T00:54:27.487Z,89.50
2022-07-29T00:55:27.472Z,89.19
2022-07-29T00:56:27.465Z,88.99
2022-07-29T00:57:27.458Z,89.50
2022-07-29T00:58:27.444Z,89.09
2022-07-29T00:59:34.582Z,89.50
2022-07-29T01:00:27.487Z,89.50
2022-07-29T01:01:27.490Z,89.29
2022-07-29T01:02:27.488Z,89.50
2022-07-29T01:03:27.388Z,89.19
2022-07-29T01:04:27.376Z,89.50
2022-07-29T01:05:50.788Z,89.70
2022-07-29T01:06:28.381Z,89.70
2022-07-29T01:07:27.344Z,89.59
2022-07-29T01:08:27.333Z,89.59
2022-07-29T01:09:34.481Z,89.70
2022-07-29T01:10:28.339Z,89.59
2022-07-29T01:11:27.300Z,89.80
2022-07-29T01:12:27.286Z,89.39
2022-07-29T01:13:27.277Z,89.50
2022-07-29T01:14:27.265Z,89.39
2022-07-29T01:15:27.255Z,89.80
2022-07-29T01:16:27.306Z,89.70
2022-07-29T01:17:27.230Z,89.29
2022-07-29T01:18:27.221Z,89.70
2022-07-29T01:19:27.210Z,89.33
2022-07-29T01:20:31.376Z,89.59
2022-07-29T01:21:27.188Z,89.64
2022-07-29T01:22:27.178Z,89.54
2022-07-29T01:23:27.165Z,89.70
2022-07-29T01:24:27.157Z,89.50
2022-07-29T01:25:27.141Z,89.23
2022-07-29T01:26:27.142Z,89.43
2022-07-29T01:27:27.122Z,89.54
2022-07-29T01:28:27.110Z,89.43
2022-07-29T01:29:29.766Z,89.03
2022-07-29T01:30:27.088Z,89.13
2022-07-29T01:31:27.107Z,89.03
2022-07-29T01:32:28.796Z,88.93
2022-07-29T01:33:27.057Z,88.93
2022-07-29T01:34:27.052Z,88.82
2022-07-29T01:35:27.032Z,88.82
2022-07-29T01:36:27.026Z,88.82
2022-07-29T01:37:27.011Z,88.93
2022-07-29T01:38:27.000Z,88.93
2022-07-29T01:39:26.987Z,88.93
2022-07-29T01:40:26.979Z,88.73
2022-07-29T01:41:26.966Z,88.73
2022-07-29T01:42:26.957Z,89.03
2022-07-29T01:43:26.945Z,88.42
2022-07-29T01:44:26.937Z,88.42
2022-07-29T01:45:26.922Z,88.42
2022-07-29T01:46:27.014Z,88.62
2022-07-29T01:47:26.903Z,88.52
2022-07-29T01:48:26.898Z,88.73
2022-07-29T01:49:26.931Z,88.62
2022-07-29T01:50:26.872Z,88.82
2022-07-29T01:51:26.862Z,88.62
2022-07-29T01:52:26.854Z,88.52
2022-07-29T01:53:26.837Z,88.52
2022-07-29T01:54:26.828Z,89.13
2022-07-29T01:55:26.813Z,88.93
2022-07-29T01:56:26.810Z,88.62
2022-07-29T01:57:26.791Z,88.52
2022-07-29T01:58:26.784Z,88.52
2022-07-29T01:59:26.766Z,89.13
2022-07-29T02:00:26.766Z,88.93
2022-07-29T02:01:26.817Z,88.93
2022-07-29T02:02:26.739Z,88.62
2022-07-29T02:03:26.727Z,88.97
2022-07-29T02:04:30.016Z,88.87
2022-07-29T02:05:26.839Z,88.97
2022-07-29T02:06:26.695Z,88.87
2022-07-29T02:07:26.682Z,88.87
2022-07-29T02:08:26.675Z,88.26
2022-07-29T02:09:26.813Z,88.76
2022-07-29T02:10:26.651Z,88.76
2022-07-29T02:11:26.639Z,88.87
2022-07-29T02:12:26.733Z,88.97
2022-07-29T02:13:26.618Z,88.87
2022-07-29T02:14:26.612Z,88.67
2022-07-29T02:15:26.599Z,88.46
2022-07-29T02:16:26.691Z,89.07
2022-07-29T02:17:26.574Z,88.67
2022-07-29T02:18:26.574Z,88.67
2022-07-29T02:19:26.567Z,88.67
2022-07-29T02:20:26.542Z,88.76
2022-07-29T02:21:26.530Z,88.97
2022-07-29T02:22:26.522Z,88.97
2022-07-29T02:23:26.508Z,88.76
2022-07-29T02:24:26.502Z,88.76
2022-07-29T02:25:37.640Z,88.87
2022-07-29T02:26:27.508Z,88.97
2022-07-29T02:27:26.468Z,89.07
2022-07-29T02:28:26.465Z,89.07
2022-07-29T02:29:26.447Z,88.87
2022-07-29T02:30:26.433Z,88.97
2022-07-29T02:31:26.550Z,89.07
2022-07-29T02:32:26.410Z,89.17
2022-07-29T02:33:26.397Z,88.97
2022-07-29T02:34:26.390Z,88.87
2022-07-29T02:35:26.377Z,88.91
2022-07-29T02:36:26.365Z,88.87
2022-07-29T02:37:26.352Z,88.81
2022-07-29T02:38:26.345Z,88.50
2022-07-29T02:39:26.332Z,88.30
2022-07-29T02:40:26.321Z,88.60
2022-07-29T02:41:26.309Z,88.81
2022-07-29T02:42:26.299Z,88.81
2022-07-29T02:43:26.286Z,89.01
2022-07-29T02:44:29.991Z,88.81
2022-07-29T02:45:27.299Z,88.81
2022-07-29T02:46:29.395Z,88.91
2022-07-29T02:47:26.242Z,88.91
2022-07-29T02:48:26.232Z,88.10
2022-07-29T02:49:26.320Z,88.40
2022-07-29T02:50:26.211Z,88.40
2022-07-29T02:51:43.573Z,88.71
2022-07-29T02:52:26.190Z,88.50
2022-07-29T02:53:26.174Z,88.60
2022-07-29T02:54:26.167Z,88.71
2022-07-29T02:55:26.153Z,88.40
2022-07-29T02:56:26.142Z,88.20
2022-07-29T02:57:26.131Z,88.30
2022-07-29T02:58:26.121Z,88.10
2022-07-29T02:59:26.108Z,88.30
2022-07-29T03:00:26.099Z,88.10
2022-07-29T03:01:26.162Z,88.40
2022-07-29T03:02:26.076Z,88.10
2022-07-29T03:03:26.064Z,88.20
2022-07-29T03:04:26.109Z,88.10
2022-07-29T03:05:26.040Z,87.99
2022-07-29T03:06:37.595Z,87.79
2022-07-29T03:07:26.023Z,87.99
2022-07-29T03:08:26.009Z,88.40
2022-07-29T03:09:25.997Z,87.89
2022-07-29T03:10:26.005Z,87.89
2022-07-29T03:11:40.078Z,87.89
2022-07-29T03:12:27.046Z,87.99
2022-07-29T03:13:25.952Z,87.59
2022-07-29T03:14:25.962Z,86.88
2022-07-29T03:15:25.938Z,87.18
2022-07-29T03:16:25.982Z,87.59
2022-07-29T03:17:25.948Z,87.18
2022-07-29T03:18:25.929Z,87.49
2022-07-29T03:19:25.915Z,87.18
2022-07-29T03:20:25.902Z,87.29
2022-07-29T03:21:25.865Z,87.29
2022-07-29T03:22:25.856Z,87.59
2022-07-29T03:23:25.843Z,87.59
2022-07-29T03:24:25.833Z,87.49
2022-07-29T03:25:25.821Z,87.49
2022-07-29T03:26:25.808Z,87.29
2022-07-29T03:27:25.802Z,86.77
2022-07-29T03:28:26.929Z,86.88
2022-07-29T03:29:25.778Z,86.98
2022-07-29T03:30:26.793Z,87.18
2022-07-29T03:31:25.817Z,86.68
2022-07-29T03:32:25.745Z,87.29
2022-07-29T03:33:25.736Z,86.88
2022-07-29T03:34:25.724Z,87.59
2022-07-29T03:35:25.710Z,86.77
2022-07-29T03:36:25.697Z,86.27
2022-07-29T03:37:25.687Z,86.77
2022-07-29T03:38:25.674Z,87.18
2022-07-29T03:39:25.667Z,86.77
2022-07-29T03:40:25.659Z,86.77
2022-07-29T03:41:25.642Z,86.88
2022-07-29T03:42:25.630Z,87.38
2022-07-29T03:43:25.619Z,87.59
2022-07-29T03:44:25.608Z,87.38
2022-07-29T03:45:25.599Z,87.08
2022-07-29T03:46:25.638Z,87.08
2022-07-29T03:47:43.456Z,86.68
2022-07-29T03:48:25.565Z,86.37
2022-07-29T03:49:25.610Z,86.47
2022-07-29T03:50:25.545Z,86.98
2022-07-29T03:51:33.329Z,86.98
2022-07-29T03:52:25.518Z,86.77
2022-07-29T03:53:25.512Z,86.88
2022-07-29T03:54:25.500Z,87.08
2022-07-29T03:55:25.492Z,86.27
2022-07-29T03:56:25.476Z,86.77
2022-07-29T03:57:25.473Z,87.08
2022-07-29T03:58:25.453Z,86.98
2022-07-29T03:59:25.445Z,86.77
2022-07-29T04:00:25.430Z,86.88
2022-07-29T04:01:25.461Z,86.98
2022-07-29T04:02:30.411Z,87.18
2022-07-29T04:03:25.456Z,87.08
2022-07-29T04:04:25.393Z,86.88
2022-07-29T04:05:25.377Z,86.98
2022-07-29T04:06:25.362Z,86.68
2022-07-29T04:07:25.352Z,87.08
2022-07-29T04:08:25.342Z,86.77
2022-07-29T04:09:25.334Z,86.98
2022-07-29T04:10:31.807Z,86.47
2022-07-29T04:11:25.315Z,86.68
2022-07-29T04:12:25.313Z,86.57
2022-07-29T04:13:25.287Z,86.57
2022-07-29T04:14:25.279Z,86.98
2022-07-29T04:15:25.268Z,86.98
2022-07-29T04:16:25.287Z,87.18
2022-07-29T04:17:25.245Z,87.29
2022-07-29T04:18:25.234Z,87.38
2022-07-29T04:19:25.223Z,87.08
2022-07-29T04:20:25.210Z,86.94
2022-07-29T04:21:25.200Z,87.18
2022-07-29T04:22:25.191Z,86.68
2022-07-29T04:23:25.179Z,87.38
2022-07-29T04:24:25.164Z,87.18
2022-07-29T04:25:25.155Z,87.14
2022-07-29T04:26:25.141Z,87.14
2022-07-29T04:27:25.131Z,86.83
2022-07-29T04:28:25.120Z,87.34
2022-07-29T04:29:25.110Z,87.24
2022-07-29T04:30:25.104Z,87.14
2022-07-29T04:31:26.008Z,87.14
2022-07-29T04:32:25.078Z,87.24
2022-07-29T04:33:25.139Z,87.45
2022-07-29T04:34:27.971Z,86.94
2022-07-29T04:35:25.058Z,87.14
2022-07-29T04:36:29.234Z,87.45
2022-07-29T04:37:25.026Z,87.04
2022-07-29T04:38:25.011Z,87.45
2022-07-29T04:39:25.003Z,87.30
2022-07-29T04:40:24.994Z,87.85
2022-07-29T04:41:32.780Z,88.01
2022-07-29T04:42:27.483Z,87.75
2022-07-29T04:43:24.958Z,87.85
2022-07-29T04:44:28.662Z,87.92
2022-07-29T04:45:24.934Z,87.61
2022-07-29T04:46:24.987Z,87.61
2022-07-29T04:47:24.920Z,87.61
2022-07-29T04:48:28.687Z,87.30
2022-07-29T04:49:24.981Z,88.21
2022-07-29T04:50:24.882Z,88.32
2022-07-29T04:51:24.875Z,88.21
2022-07-29T04:52:24.862Z,88.62
2022-07-29T04:53:24.856Z,88.21
2022-07-29T04:54:25.551Z,88.12
2022-07-29T04:55:24.889Z,88.62
2022-07-29T04:56:24.991Z,88.32
2022-07-29T04:57:25.084Z,88.73
2022-07-29T04:58:25.101Z,88.82
2022-07-29T04:59:24.791Z,88.32
2022-07-29T05:00:28.009Z,88.78
2022-07-29T05:01:24.801Z,88.93
2022-07-29T05:02:24.931Z,88.78
2022-07-29T05:03:24.747Z,88.58
2022-07-29T05:04:24.731Z,87.97
2022-07-29T05:05:24.729Z,88.99
2022-07-29T05:06:24.711Z,88.99
2022-07-29T05:07:24.701Z,89.09
2022-07-29T05:08:24.692Z,89.19
2022-07-29T05:09:24.681Z,89.19
2022-07-29T05:10:24.669Z,88.78
2022-07-29T05:11:28.624Z,89.09
2022-07-29T05:12:24.649Z,89.09
2022-07-29T05:13:24.638Z,89.09
2022-07-29T05:14:24.626Z,89.09
2022-07-29T05:15:24.703Z,89.65
2022-07-29T05:16:24.665Z,89.25
2022-07-29T05:17:24.723Z,88.95
2022-07-29T05:18:26.028Z,89.45
2022-07-29T05:19:24.605Z,89.55
2022-07-29T05:20:24.575Z,89.15
2022-07-29T05:21:24.564Z,89.86
2022-07-29T05:22:24.715Z,89.55
2022-07-29T05:23:24.529Z,89.86
2022-07-29T05:24:24.516Z,89.45
2022-07-29T05:25:24.506Z,89.55
2022-07-29T05:26:25.523Z,89.65
2022-07-29T05:27:24.585Z,89.61
2022-07-29T05:28:24.468Z,89.72
2022-07-29T05:29:44.008Z,89.92
2022-07-29T05:30:24.448Z,90.02
2022-07-29T05:31:24.476Z,89.92
2022-07-29T05:32:24.423Z,90.28
2022-07-29T05:33:36.198Z,90.08
2022-07-29T05:34:25.430Z,90.48
2022-07-29T05:35:24.391Z,90.48
2022-07-29T05:36:24.379Z,91.09
2022-07-29T05:37:24.373Z,90.58
2022-07-29T05:38:24.357Z,90.08
2022-07-29T05:39:48.441Z,90.38
2022-07-29T05:40:24.354Z,91.19
2022-07-29T05:41:24.355Z,90.38
2022-07-29T05:42:24.335Z,90.69
2022-07-29T05:43:24.316Z,90.89
2022-07-29T05:44:25.410Z,90.89
2022-07-29T05:45:24.283Z,90.54
2022-07-29T05:46:24.385Z,90.48
2022-07-29T05:47:24.261Z,90.79
2022-07-29T05:48:24.254Z,90.54
2022-07-29T05:49:27.293Z,90.24
2022-07-29T05:50:24.226Z,90.84
2022-07-29T05:51:24.216Z,90.84
2022-07-29T05:52:24.206Z,90.84
2022-07-29T05:53:24.196Z,90.84
2022-07-29T05:54:24.184Z,91.25
2022-07-29T05:55:24.379Z,90.75
2022-07-29T05:56:24.160Z,90.75
2022-07-29T05:57:24.150Z,90.34
2022-07-29T05:58:24.141Z,90.44
2022-07-29T05:59:29.798Z,91.05
2022-07-29T06:00:25.147Z,90.44
2022-07-29T06:01:24.231Z,90.75
2022-07-29T06:02:24.099Z,90.44
2022-07-29T06:03:24.115Z,89.94
2022-07-29T06:04:24.240Z,90.34
2022-07-29T06:05:24.084Z,90.40
2022-07-29T06:06:24.053Z,90.40
2022-07-29T06:07:24.043Z,90.14
2022-07-29T06:08:24.029Z,90.24
2022-07-29T06:09:24.089Z,89.69
2022-07-29T06:10:27.037Z,90.24
2022-07-29T06:11:23.998Z,89.73
2022-07-29T06:12:23.984Z,89.23
2022-07-29T06:13:23.978Z,89.32
2022-07-29T06:14:23.964Z,89.99
2022-07-29T06:15:23.955Z,90.20
2022-07-29T06:16:29.907Z,89.89
2022-07-29T06:17:24.957Z,89.28
2022-07-29T06:18:23.921Z,89.89
2022-07-29T06:19:23.911Z,89.79
2022-07-29T06:20:27.086Z,89.39
2022-07-29T06:21:23.886Z,89.69
2022-07-29T06:22:23.874Z,89.39
2022-07-29T06:23:23.864Z,89.85
2022-07-29T06:24:23.855Z,88.98
2022-07-29T06:25:23.849Z,89.08
2022-07-29T06:26:31.350Z,88.78
2022-07-29T06:27:24.863Z,89.08
2022-07-29T06:28:23.807Z,89.28
2022-07-29T06:29:23.799Z,89.14
2022-07-29T06:30:23.895Z,89.65
2022-07-29T06:31:23.852Z,89.54
2022-07-29T06:32:23.764Z,89.34
2022-07-29T06:33:23.756Z,89.65
2022-07-29T06:34:23.762Z,89.85
2022-07-29T06:35:42.323Z,89.75
2022-07-29T06:36:25.092Z,90.01
2022-07-29T06:37:23.715Z,89.54
2022-07-29T06:38:31.557Z,89.45
2022-07-29T06:39:23.687Z,89.81
2022-07-29T06:40:23.672Z,89.91
2022-07-29T06:41:23.670Z,89.66
2022-07-29T06:42:23.654Z,90.07
2022-07-29T06:43:23.643Z,90.98
2022-07-29T06:44:23.630Z,90.37
2022-07-29T06:45:23.623Z,91.24
2022-07-29T06:46:24.054Z,90.63
2022-07-29T06:47:23.687Z,91.24
2022-07-29T06:48:23.786Z,91.14
2022-07-29T06:49:23.918Z,90.33
2022-07-29T06:50:23.910Z,91.14
2022-07-29T06:51:24.199Z,90.63
2022-07-29T06:52:23.546Z,91.19
2022-07-29T06:53:23.538Z,90.89
2022-07-29T06:54:23.523Z,91.60
2022-07-29T06:55:24.966Z,91.55
2022-07-29T06:56:23.501Z,91.96
2022-07-29T06:57:23.499Z,92.26
2022-07-29T06:58:23.481Z,92.00
2022-07-29T06:59:32.070Z,91.76
2022-07-29T07:00:24.643Z,92.00
2022-07-29T07:01:23.516Z,91.86
2022-07-29T07:02:23.476Z,92.66
2022-07-29T07:03:23.432Z,92.06
2022-07-29T07:04:23.418Z,92.22
2022-07-29T07:05:23.412Z,92.32
2022-07-29T07:06:23.394Z,92.12
2022-07-29T07:07:23.385Z,92.27
2022-07-29T07:08:23.386Z,92.07
2022-07-29T07:09:23.408Z,91.83
2022-07-29T07:10:23.375Z,92.33
2022-07-29T07:11:23.367Z,92.79
2022-07-29T07:12:23.342Z,93.10
2022-07-29T07:13:23.318Z,92.90
2022-07-29T07:14:23.305Z,93.10
2022-07-29T07:15:23.299Z,92.94
2022-07-29T07:16:24.325Z,92.90
2022-07-29T07:17:23.274Z,92.79
2022-07-29T07:18:23.261Z,92.90
2022-07-29T07:19:23.254Z,93.50
2022-07-29T07:20:23.257Z,92.95
2022-07-29T07:21:23.231Z,92.95
2022-07-29T07:22:23.216Z,92.85
2022-07-29T07:23:23.213Z,93.26
2022-07-29T07:24:23.194Z,92.95
2022-07-29T07:25:23.188Z,92.91
2022-07-29T07:26:23.176Z,92.76
2022-07-29T07:27:23.167Z,92.52
2022-07-29T07:28:24.530Z,92.52
2022-07-29T07:29:23.144Z,92.37
2022-07-29T07:30:23.179Z,91.83
2022-07-29T07:31:23.157Z,89.78
2022-07-29T07:32:23.217Z,90.03
2022-07-29T07:33:23.118Z,87.98
2022-07-29T07:34:29.481Z,86.54
2022-07-29T07:35:23.082Z,85.08
2022-07-29T07:36:23.071Z,86.22
2022-07-29T07:37:23.055Z,85.92
2022-07-29T07:38:23.044Z,88.23
2022-07-29T07:39:23.032Z,87.78
2022-07-29T07:40:23.081Z,86.18
2022-07-29T07:41:23.013Z,86.24
2022-07-29T07:42:23.003Z,83.59
2022-07-29T07:43:22.990Z,85.03
2022-07-29T07:44:23.743Z,86.24
2022-07-29T07:45:22.969Z,86.08
2022-07-29T07:46:23.234Z,87.98
2022-07-29T07:47:22.953Z,86.28
2022-07-29T07:48:22.938Z,88.79
2022-07-29T07:49:23.113Z,87.93
2022-07-29T07:50:22.917Z,88.39
2022-07-29T07:51:22.908Z,87.38
2022-07-29T07:52:22.893Z,87.82
2022-07-29T07:53:22.891Z,86.08
2022-07-29T07:54:22.907Z,87.18
2022-07-29T07:55:22.908Z,87.24
2022-07-29T07:56:22.869Z,82.82
2022-07-29T07:57:22.859Z,87.04
2022-07-29T07:58:22.828Z,82.67
2022-07-29T07:59:22.817Z,85.27
2022-07-29T08:00:23.569Z,85.27
2022-07-29T08:01:22.846Z,85.68
2022-07-29T08:02:22.894Z,83.07
2022-07-29T08:03:22.773Z,83.87
2022-07-29T08:04:27.519Z,83.57
2022-07-29T08:05:22.758Z,83.57
2022-07-29T08:06:22.746Z,82.93
2022-07-29T08:07:22.731Z,84.03
2022-07-29T08:08:22.721Z,81.18
2022-07-29T08:09:29.393Z,81.88
2022-07-29T08:10:23.726Z,80.44
2022-07-29T08:11:22.689Z,76.10
2022-07-29T08:12:22.682Z,72.36
2022-07-29T08:13:22.668Z,71.83
2022-07-29T08:14:22.658Z,69.73
2022-07-29T08:15:22.645Z,72.29
2022-07-29T08:16:22.748Z,69.46
2022-07-29T08:17:22.659Z,70.09
2022-07-29T08:18:22.638Z,70.23
2022-07-29T08:19:22.643Z,73.49
2022-07-29T08:20:22.594Z,68.76
2022-07-29T08:21:22.586Z,65.70
2022-07-29T08:22:22.573Z,66.47
2022-07-29T08:23:22.561Z,62.84
2022-07-29T08:24:22.550Z,61.88
2022-07-29T08:25:22.541Z,58.89
2022-07-29T08:26:22.532Z,59.17
2022-07-29T08:27:42.426Z,59.64
2022-07-29T08:28:25.883Z,56.57
2022-07-29T08:29:22.496Z,54.46
2022-07-29T08:30:22.490Z,54.35
2022-07-29T08:31:22.570Z,53.83
2022-07-29T08:32:50.964Z,53.01
2022-07-29T08:33:23.484Z,53.08
2022-07-29T08:34:26.901Z,52.69
2022-07-29T08:35:22.438Z,51.18
2022-07-29T08:36:22.431Z,51.30
2022-07-29T08:37:22.416Z,52.69
2022-07-29T08:38:22.450Z,51.50
2022-07-29T08:39:22.467Z,50.60
2022-07-29T08:40:30.558Z,50.88
2022-07-29T08:41:23.482Z,50.31
2022-07-29T08:42:22.437Z,50.33
2022-07-29T08:43:22.351Z,52.14
2022-07-29T08:44:30.382Z,52.37
2022-07-29T08:45:23.624Z,52.31
2022-07-29T08:46:22.398Z,52.47
2022-07-29T08:47:22.309Z,53.19
2022-07-29T08:48:22.330Z,53.58
2022-07-29T08:49:22.364Z,53.06
2022-07-29T08:50:22.279Z,53.56
2022-07-29T08:51:22.269Z,53.33
2022-07-29T08:52:22.259Z,51.79
2022-07-29T08:53:22.245Z,52.17
2022-07-29T08:54:22.241Z,51.03
2022-07-29T08:55:22.228Z,48.18
2022-07-29T08:56:22.213Z,49.61
2022-07-29T08:57:22.203Z,48.72
2022-07-29T08:58:23.257Z,49.29
2022-07-29T08:59:22.185Z,47.96
2022-07-29T09:00:22.182Z,47.36
2022-07-29T09:01:22.294Z,47.93
2022-07-29T09:02:22.158Z,47.99
2022-07-29T09:03:22.305Z,47.86
2022-07-29T09:04:22.182Z,47.37
2022-07-29T09:05:22.180Z,47.44
2022-07-29T09:06:22.136Z,46.88
2022-07-29T09:07:22.135Z,46.18
2022-07-29T09:08:22.265Z,45.57
2022-07-29T09:09:22.084Z,44.56
2022-07-29T09:10:22.072Z,45.25
2022-07-29T09:11:22.058Z,44.43
2022-07-29T09:12:29.359Z,45.10
2022-07-29T09:13:23.069Z,45.18
2022-07-29T09:14:22.036Z,43.46
2022-07-29T09:15:22.023Z,42.24
2022-07-29T09:16:43.785Z,42.12
2022-07-29T09:17:23.093Z,41.86
2022-07-29T09:18:30.890Z,42.02
2022-07-29T09:19:21.983Z,41.80
2022-07-29T09:20:21.972Z,41.39
2022-07-29T09:21:21.964Z,40.31
2022-07-29T09:22:21.953Z,42.87
2022-07-29T09:23:23.820Z,44.25
2022-07-29T09:24:21.937Z,43.03
2022-07-29T09:25:21.935Z,43.29
2022-07-29T09:26:21.938Z,45.03
2022-07-29T09:27:21.943Z,45.67
2022-07-29T09:28:22.093Z,47.02
2022-07-29T09:29:21.906Z,49.29
2022-07-29T09:30:28.309Z,48.11
2022-07-29T09:31:23.001Z,48.15
2022-07-29T09:32:21.854Z,48.97
2022-07-29T09:33:22.098Z,50.28
2022-07-29T09:34:21.838Z,48.97
2022-07-29T09:35:21.821Z,48.77
2022-07-29T09:36:21.816Z,48.25
2022-07-29T09:37:21.834Z,47.96
2022-07-29T09:38:22.099Z,48.08
2022-07-29T09:39:22.054Z,47.78
2022-07-29T09:40:21.774Z,49.74
2022-07-29T09:41:21.762Z,48.45
2022-07-29T09:42:21.754Z,48.23
2022-07-29T09:43:21.740Z,48.15
2022-07-29T09:44:21.731Z,48.92
2022-07-29T09:45:21.720Z,48.01
2022-07-29T09:46:21.748Z,48.68
2022-07-29T09:47:21.700Z,48.43
2022-07-29T09:48:21.691Z,47.44
2022-07-29T09:49:21.776Z,47.58
2022-07-29T09:50:21.688Z,48.20
2022-07-29T09:51:27.044Z,48.08
2022-07-29T09:52:21.658Z,48.75
2022-07-29T09:53:21.637Z,47.26
2022-07-29T09:54:21.631Z,47.74
2022-07-29T09:55:21.619Z,47.46
2022-07-29T09:56:21.613Z,48.03
2022-07-29T09:57:21.596Z,46.74
2022-07-29T09:58:21.594Z,47.22
2022-07-29T09:59:21.582Z,46.72
2022-07-29T10:00:21.582Z,47.17
2022-07-29T10:01:21.589Z,46.85
2022-07-29T10:02:23.946Z,45.59
2022-07-29T10:03:21.636Z,46.20
2022-07-29T10:04:21.529Z,46.60
2022-07-29T10:05:21.536Z,45.49
2022-07-29T10:06:21.510Z,45.09
2022-07-29T10:07:21.493Z,44.48
2022-07-29T10:08:21.488Z,44.68
2022-07-29T10:09:22.309Z,44.85
2022-07-29T10:10:21.463Z,43.77
2022-07-29T10:11:21.453Z,44.75
2022-07-29T10:12:21.461Z,43.07
2022-07-29T10:13:21.496Z,43.69
2022-07-29T10:14:21.449Z,44.09
2022-07-29T10:15:21.408Z,44.68
2022-07-29T10:16:21.458Z,44.06
2022-07-29T10:17:21.390Z,43.35
2022-07-29T10:18:21.379Z,42.14
2022-07-29T10:19:21.374Z,42.02
2022-07-29T10:20:21.362Z,42.64
2022-07-29T10:21:34.947Z,43.45
2022-07-29T10:22:50.407Z,43.15
2022-07-29T10:23:21.336Z,43.55
2022-07-29T10:24:21.319Z,42.76
2022-07-29T10:25:21.310Z,43.84
2022-07-29T10:26:21.301Z,43.31
2022-07-29T10:27:21.287Z,43.13
2022-07-29T10:28:21.282Z,43.65
2022-07-29T10:29:21.491Z,42.93
2022-07-29T10:30:21.259Z,43.33
2022-07-29T10:31:21.316Z,43.35
2022-07-29T10:32:21.309Z,43.03
2022-07-29T10:33:21.514Z,42.34
2022-07-29T10:34:21.234Z,42.54
2022-07-29T10:35:21.283Z,42.91
2022-07-29T10:36:21.221Z,42.22
2022-07-29T10:37:21.198Z,42.61
2022-07-29T10:38:21.176Z,42.64
2022-07-29T10:39:22.231Z,42.44
2022-07-29T10:40:21.156Z,43.03
2022-07-29T10:41:21.143Z,43.48
2022-07-29T10:42:29.518Z,42.08
2022-07-29T10:43:21.130Z,41.75
2022-07-29T10:44:23.314Z,40.66
2022-07-29T10:45:21.107Z,41.06
2022-07-29T10:46:21.145Z,40.64
2022-07-29T10:47:21.084Z,41.06
2022-07-29T10:48:21.086Z,41.38
2022-07-29T10:49:24.394Z,41.78
2022-07-29T10:50:21.061Z,42.00
2022-07-29T10:51:21.048Z,43.33
2022-07-29T10:52:21.042Z,42.89
2022-07-29T10:53:22.163Z,43.38
2022-07-29T10:54:21.018Z,43.34
2022-07-29T10:55:21.008Z,41.27
2022-07-29T10:56:21.002Z,41.08
2022-07-29T10:57:21.015Z,41.67
2022-07-29T10:58:21.194Z,42.07
2022-07-29T10:59:21.402Z,42.18
2022-07-29T11:00:20.996Z,42.20
2022-07-29T11:03:22.969Z,41.59
2022-07-29T11:04:20.920Z,41.31
2022-07-29T11:05:21.725Z,41.91
2022-07-29T11:06:26.174Z,41.91
2022-07-29T11:07:20.881Z,41.39
2022-07-29T11:08:25.308Z,39.95
2022-07-29T11:09:30.157Z,39.23
2022-07-29T11:10:21.930Z,39.78
2022-07-29T11:11:22.202Z,39.17
2022-07-29T11:12:20.836Z,37.52
2022-07-29T11:13:20.825Z,37.54
2022-07-29T11:14:26.647Z,38.21
2022-07-29T11:15:20.804Z,38.46
2022-07-29T11:16:21.359Z,37.27
2022-07-29T11:17:20.787Z,36.78
2022-07-29T11:18:20.783Z,35.49
2022-07-29T11:19:26.176Z,35.97
2022-07-29T11:20:21.788Z,36.21
2022-07-29T11:21:23.386Z,36.66
2022-07-29T11:22:20.762Z,36.24
2022-07-29T11:23:20.723Z,36.76
2022-07-29T11:24:29.049Z,36.68
2022-07-29T11:25:50.282Z,37.58
2022-07-29T11:26:20.700Z,37.37
2022-07-29T11:27:20.687Z,36.19
2022-07-29T11:28:22.956Z,36.42
2022-07-29T11:29:20.673Z,36.72
2022-07-29T11:30:20.684Z,36.74
2022-07-29T11:31:20.660Z,37.34
2022-07-29T11:32:23.266Z,37.44
2022-07-29T11:33:20.720Z,37.26
2022-07-29T11:34:21.643Z,37.32
2022-07-29T11:35:37.568Z,36.21
2022-07-29T11:36:27.805Z,36.66
2022-07-29T11:37:27.693Z,35.85
2022-07-29T11:38:21.609Z,34.98
2022-07-29T11:39:20.569Z,35.17
2022-07-29T11:40:21.483Z,35.08
2022-07-29T11:41:20.904Z,35.58
2022-07-29T11:42:28.181Z,37.29
2022-07-29T11:43:21.557Z,36.52
2022-07-29T11:44:20.543Z,36.83
2022-07-29T11:45:43.029Z,36.16
2022-07-29T11:46:25.162Z,36.47
2022-07-29T11:47:20.561Z,37.16
2022-07-29T11:48:28.798Z,37.97
2022-07-29T11:49:22.084Z,37.87
2022-07-29T11:50:20.461Z,38.46
2022-07-29T11:51:20.449Z,37.67
2022-07-29T11:52:20.440Z,37.40
2022-07-29T11:53:20.431Z,37.59
2022-07-29T11:54:27.634Z,37.51
2022-07-29T11:55:20.410Z,38.32
2022-07-29T11:56:20.406Z,38.34
2022-07-29T11:57:20.399Z,38.85
2022-07-29T11:58:20.384Z,39.15
2022-07-29T11:59:20.375Z,38.85
2022-07-29T12:00:20.363Z,39.25
2022-07-29T12:01:20.350Z,39.03
2022-07-29T12:02:37.555Z,38.04
2022-07-29T12:03:21.382Z,38.14
2022-07-29T12:04:21.347Z,38.12
2022-07-29T12:05:35.943Z,37.99
2022-07-29T12:06:21.341Z,37.69
2022-07-29T12:07:20.412Z,37.69
2022-07-29T12:08:20.279Z,37.87
2022-07-29T12:09:20.653Z,36.77
2022-07-29T12:10:30.653Z,36.75
2022-07-29T12:11:20.874Z,37.74
2022-07-29T12:12:20.239Z,36.46
2022-07-29T12:13:20.232Z,36.26
2022-07-29T12:14:20.216Z,37.10
2022-07-29T12:15:20.361Z,37.01
2022-07-29T12:16:26.165Z,37.79
2022-07-29T12:17:20.189Z,37.53
2022-07-29T12:18:20.179Z,38.43
2022-07-29T12:19:20.168Z,38.85
2022-07-29T12:20:20.491Z,39.86
2022-07-29T12:21:20.149Z,39.06
2022-07-29T12:22:20.135Z,38.37
2022-07-29T12:23:20.198Z,38.49
2022-07-29T12:24:20.396Z,39.38
2022-07-29T12:25:35.445Z,40.27
2022-07-29T12:26:25.326Z,39.86
2022-07-29T12:27:29.550Z,38.85
2022-07-29T12:28:26.802Z,39.46
2022-07-29T12:29:35.566Z,39.48
2022-07-29T12:30:20.050Z,40.07
2022-07-29T12:31:42.920Z,39.76
2022-07-29T12:32:20.116Z,39.64
2022-07-29T12:33:20.091Z,38.16
2022-07-29T12:34:20.011Z,38.65
2022-07-29T12:35:20.002Z,38.65
2022-07-29T12:36:19.992Z,39.38
2022-07-29T12:37:19.981Z,39.97
2022-07-29T12:38:19.974Z,39.36
2022-07-29T12:39:19.962Z,40.05
2022-07-29T12:40:19.959Z,39.56
2022-07-29T12:41:19.946Z,40.25
2022-07-29T12:42:19.936Z,39.48
2022-07-29T12:43:19.919Z,39.87
2022-07-29T12:44:19.910Z,40.25
2022-07-29T12:45:19.910Z,39.64
2022-07-29T12:46:19.925Z,38.56
2022-07-29T12:47:19.887Z,39.03
2022-07-29T12:48:19.873Z,38.83
2022-07-29T12:49:19.939Z,39.54
2022-07-29T12:50:24.468Z,40.01
2022-07-29T12:51:19.890Z,38.70
2022-07-29T12:52:19.865Z,38.60
2022-07-29T12:53:19.839Z,38.20
2022-07-29T12:54:19.875Z,38.01